createdAt,value
2019-02-07T00:01:25.305Z,45.60
2019-02-07T00:03:54.449Z,66.90
2019-02-07T00:06:23.786Z,42.53
2019-02-07T00:08:53.357Z,40.80
2019-02-07T00:11:22.503Z,56.67
2019-02-07T00:13:51.608Z,66.27
2019-02-07T00:16:21.302Z,43.17
2019-02-07T00:18:50.394Z,51.17
2019-02-07T00:21:19.533Z,86.27
2019-02-07T00:23:48.621Z,56.20
2019-02-07T00:26:17.646Z,49.50
2019-02-07T00:28:46.717Z,39.30
2019-02-07T00:31:15.867Z,44.23
2019-02-07T00:33:44.890Z,41.93
2019-02-07T00:36:13.911Z,47.73
2019-02-07T00:38:43.082Z,44.37
2019-02-07T00:41:12.172Z,43.77
2019-02-07T00:43:41.285Z,41.67
2019-02-07T00:46:10.821Z,38.03
2019-02-07T00:48:39.955Z,67.50
2019-02-07T00:51:09.019Z,47.90
2019-02-07T00:53:38.098Z,48.17
2019-02-07T00:56:07.305Z,43.30
2019-02-07T00:58:36.398Z,41.87
2019-02-07T01:01:06.054Z,52.13
2019-02-07T01:03:35.173Z,55.57
2019-02-07T01:06:04.243Z,48.50
2019-02-07T01:08:33.266Z,64.67
2019-02-07T01:11:02.305Z,45.53
2019-02-07T01:13:50.441Z,39.93
2019-02-07T01:16:19.541Z,38.80
2019-02-07T01:18:48.909Z,46.07
2019-02-07T01:21:17.973Z,45.97
2019-02-07T01:23:47.101Z,45.83
2019-02-07T01:26:16.399Z,44.08
2019-02-07T01:28:45.384Z,45.43
2019-02-07T01:31:14.407Z,50.20
2019-02-07T01:33:43.478Z,51.73
2019-02-07T01:36:12.870Z,47.13
2019-02-07T01:38:41.909Z,51.67
2019-02-07T01:41:11.329Z,53.43
2019-02-07T01:43:40.686Z,48.23
2019-02-07T01:46:09.869Z,55.47
2019-02-07T01:48:38.965Z,56.73
2019-02-07T01:51:08.006Z,60.43
2019-02-07T01:53:37.155Z,73.27
2019-02-07T01:56:06.170Z,58.77
2019-02-07T01:58:35.676Z,66.87
2019-02-07T02:01:04.866Z,54.13
2019-02-07T02:03:34.128Z,59.03
2019-02-07T02:06:03.213Z,47.93
2019-02-07T02:08:32.370Z,56.67
2019-02-07T02:11:01.473Z,51.37
2019-02-07T02:13:31.329Z,64.27
2019-02-07T02:16:00.481Z,59.57
2019-02-07T02:18:29.594Z,51.00
2019-02-07T02:20:58.732Z,52.13
2019-02-07T02:23:27.788Z,49.97
2019-02-07T02:25:56.868Z,45.27
2019-02-07T02:28:26.369Z,59.33
2019-02-07T02:30:55.421Z,52.10
2019-02-07T02:33:24.507Z,67.97
2019-02-07T02:35:53.543Z,60.03
2019-02-07T02:38:22.506Z,69.20
2019-02-07T02:40:51.797Z,78.90
2019-02-07T02:43:20.953Z,62.37
2019-02-07T02:45:49.982Z,66.50
2019-02-07T02:48:18.942Z,68.83
2019-02-07T02:50:47.967Z,62.53
2019-02-07T02:53:17.605Z,72.73
2019-02-07T02:55:46.789Z,79.87
2019-02-07T02:58:15.858Z,71.80
2019-02-07T03:01:22.326Z,66.53
2019-02-07T03:03:58.153Z,68.97
2019-02-07T03:06:45.451Z,79.50
2019-02-07T03:09:42.840Z,88.57
2019-02-07T03:12:49.452Z,71.57
2019-02-07T03:15:48.763Z,62.13
2019-02-07T03:18:29.169Z,69.50
2019-02-07T03:21:17.247Z,64.37
2019-02-07T03:24:05.601Z,67.83
2019-02-07T03:26:44.510Z,66.53
2019-02-07T03:29:39.138Z,64.97
2019-02-07T03:32:30.239Z,66.33
2019-02-07T03:35:06.415Z,69.03
2019-02-07T03:37:54.503Z,68.60
2019-02-07T03:40:41.627Z,63.20
2019-02-07T03:43:28.703Z,64.13
2019-02-07T03:46:15.399Z,71.50
2019-02-07T03:48:56.173Z,71.70
2019-02-07T03:51:36.063Z,61.23
2019-02-07T03:54:29.866Z,68.03
2019-02-07T03:57:27.255Z,62.97
2019-02-07T04:00:10.781Z,63.27
2019-02-07T04:02:57.798Z,76.53
2019-02-07T04:05:48.714Z,70.47
2019-02-07T04:08:39.977Z,66.07
2019-02-07T04:11:32.269Z,81.23
2019-02-07T04:14:19.153Z,71.30
2019-02-07T04:17:07.310Z,75.50
2019-02-07T04:19:47.364Z,75.90
2019-02-07T04:22:35.478Z,74.13
2019-02-07T04:25:32.428Z,63.77
2019-02-07T04:28:33.424Z,71.33
2019-02-07T04:31:20.291Z,72.80
2019-02-07T04:34:06.796Z,80.60
2019-02-07T04:36:55.620Z,69.20
2019-02-07T04:40:01.834Z,81.47
2019-02-07T04:43:04.671Z,80.67
2019-02-07T04:46:01.613Z,81.35
2019-02-07T04:48:48.470Z,71.27
2019-02-07T04:51:37.752Z,65.60
2019-02-07T04:54:40.846Z,71.77
2019-02-07T04:57:19.262Z,73.00
2019-02-07T05:00:10.311Z,74.90
2019-02-07T05:03:16.849Z,68.90
2019-02-07T05:06:07.799Z,63.98
2019-02-07T05:08:46.996Z,67.73
2019-02-07T05:11:35.941Z,67.67
2019-02-07T05:14:27.366Z,57.53
2019-02-07T05:17:10.809Z,59.73
2019-02-07T05:20:14.231Z,66.10
2019-02-07T05:23:02.264Z,72.58
2019-02-07T05:25:53.087Z,60.30
2019-02-07T05:28:41.222Z,55.77
2019-02-07T05:31:35.290Z,52.80
2019-02-07T05:34:24.536Z,59.87
2019-02-07T05:37:18.737Z,77.83
2019-02-07T05:40:07.304Z,61.53
2019-02-07T05:43:01.381Z,56.50
2019-02-07T05:45:52.808Z,62.40
2019-02-07T05:48:49.818Z,58.10
2019-02-07T05:51:28.127Z,64.47
2019-02-07T05:54:11.845Z,70.83
2019-02-07T05:56:59.689Z,58.93
2019-02-07T05:59:50.816Z,65.57
2019-02-07T06:02:32.975Z,70.80
2019-02-07T06:05:29.967Z,63.40
2019-02-07T06:08:18.359Z,60.90
2019-02-07T06:11:05.157Z,65.23
2019-02-07T06:13:46.942Z,64.83
2019-02-07T06:17:02.257Z,68.87
2019-02-07T06:19:33.875Z,67.12
2019-02-07T06:22:21.106Z,64.87
2019-02-07T06:25:07.826Z,59.40
2019-02-07T06:27:48.253Z,68.17
2019-02-07T06:30:46.047Z,61.00
2019-02-07T06:33:24.235Z,67.13
2019-02-07T06:36:18.373Z,63.78
2019-02-07T06:38:59.439Z,59.65
2019-02-07T06:41:50.331Z,59.73
2019-02-07T06:44:39.708Z,55.65
2019-02-07T06:47:36.677Z,52.13
2019-02-07T06:50:24.793Z,51.00
2019-02-07T06:53:15.964Z,60.57
2019-02-07T06:55:59.317Z,57.83
2019-02-07T06:58:55.383Z,55.30
2019-02-07T07:01:43.735Z,52.57
2019-02-07T07:04:30.830Z,53.10
2019-02-07T07:07:10.553Z,52.27
2019-02-07T07:09:50.542Z,52.83
2019-02-07T07:12:49.820Z,53.27
2019-02-07T07:15:35.867Z,49.30
2019-02-07T07:18:22.806Z,53.50
2019-02-07T07:21:10.143Z,46.80
2019-02-07T07:23:57.024Z,52.25
2019-02-07T07:26:43.751Z,40.97
2019-02-07T07:29:31.296Z,39.10
2019-02-07T07:32:18.178Z,41.43
2019-02-07T07:35:08.475Z,40.10
2019-02-07T07:37:56.475Z,43.00
2019-02-07T07:40:39.480Z,36.50
2019-02-07T07:43:35.454Z,35.17
2019-02-07T07:46:29.846Z,31.93
2019-02-07T07:49:21.377Z,34.87
2019-02-07T07:52:02.593Z,37.60
2019-02-07T07:54:50.646Z,40.97
2019-02-07T07:57:54.129Z,41.10
2019-02-07T08:00:51.308Z,50.27
2019-02-07T08:03:48.321Z,48.03
2019-02-07T08:06:29.054Z,42.67
2019-02-07T08:09:23.001Z,48.40
2019-02-07T08:12:11.880Z,40.90
2019-02-07T08:15:15.256Z,45.63
2019-02-07T08:18:02.336Z,47.23
2019-02-07T08:20:49.584Z,48.60
2019-02-07T08:23:47.092Z,42.73
2019-02-07T08:26:41.385Z,58.20
2019-02-07T08:29:23.284Z,40.63
2019-02-07T08:32:14.399Z,50.73
2019-02-07T08:35:01.402Z,47.07
2019-02-07T08:38:07.837Z,47.87
2019-02-07T08:40:47.900Z,47.10
2019-02-07T08:43:38.837Z,46.83
2019-02-07T08:46:25.645Z,46.13
2019-02-07T08:49:03.329Z,45.37
2019-02-07T08:51:47.749Z,52.70
2019-02-07T08:54:34.781Z,53.93
2019-02-07T08:57:21.709Z,42.33
2019-02-07T09:00:08.874Z,48.17
2019-02-07T09:02:55.206Z,50.47
2019-02-07T09:05:41.870Z,52.73
2019-02-07T09:08:28.830Z,46.30
2019-02-07T09:11:25.565Z,48.73
2019-02-07T09:14:12.543Z,47.40
2019-02-07T09:17:14.569Z,52.13
2019-02-07T09:19:56.362Z,59.83
2019-02-07T09:22:44.553Z,46.63
2019-02-07T09:25:34.462Z,60.07
2019-02-07T09:28:31.086Z,48.17
2019-02-07T09:31:17.820Z,55.27
2019-02-07T09:34:02.675Z,52.00
2019-02-07T09:36:51.180Z,51.90
2019-02-07T09:39:44.658Z,52.37
2019-02-07T09:42:21.441Z,51.10
2019-02-07T09:45:00.465Z,52.10
2019-02-07T09:47:47.673Z,53.70
2019-02-07T09:50:38.930Z,53.02
2019-02-07T09:53:34.939Z,52.30
2019-02-07T09:56:23.501Z,49.10
2019-02-07T09:59:23.715Z,54.13
2019-02-07T10:02:20.693Z,45.30
2019-02-07T10:04:59.913Z,59.80
2019-02-07T10:07:46.218Z,52.57
2019-02-07T10:10:43.271Z,48.17
2019-02-07T10:13:31.849Z,54.17
2019-02-07T10:16:15.631Z,58.13
2019-02-07T10:19:02.674Z,62.30
2019-02-07T10:21:57.034Z,52.63
2019-02-07T10:24:48.400Z,54.77
2019-02-07T10:27:35.731Z,54.67
2019-02-07T10:30:25.293Z,56.63
2019-02-07T10:33:12.309Z,53.20
2019-02-07T10:36:02.765Z,55.90
2019-02-07T10:38:39.258Z,51.07
2019-02-07T10:41:27.434Z,55.90
2019-02-07T10:44:27.927Z,57.73
2019-02-07T10:47:13.462Z,56.47
2019-02-07T10:50:06.714Z,52.33
2019-02-07T10:52:53.569Z,56.40
2019-02-07T10:55:44.698Z,56.33
2019-02-07T10:58:31.797Z,48.37
2019-02-07T11:01:21.208Z,52.37
2019-02-07T11:04:07.885Z,48.17
2019-02-07T11:06:46.846Z,49.60
2019-02-07T11:09:49.386Z,57.07
2019-02-07T11:12:41.185Z,52.77
2019-02-07T11:15:31.733Z,48.20
2019-02-07T11:18:16.609Z,49.13
2019-02-07T11:21:03.385Z,55.23
2019-02-07T11:23:51.461Z,57.93
2019-02-07T11:26:45.780Z,47.37
2019-02-07T11:29:30.691Z,51.33
2019-02-07T11:32:30.889Z,49.90
2019-02-07T11:35:34.168Z,54.40
2019-02-07T11:38:40.157Z,55.07
2019-02-07T11:41:16.063Z,59.40
2019-02-07T11:44:13.046Z,63.50
2019-02-07T11:47:05.519Z,59.27
2019-02-07T11:49:56.172Z,62.93
2019-02-07T11:52:49.950Z,63.20
2019-02-07T11:55:34.546Z,64.23
2019-02-07T11:58:14.160Z,58.23
2019-02-07T12:01:01.952Z,60.47
2019-02-07T12:03:50.666Z,64.20
2019-02-07T12:06:50.650Z,69.73
2019-02-07T12:09:44.812Z,67.63
2019-02-07T12:12:31.627Z,61.10
2019-02-07T12:15:18.511Z,62.93
2019-02-07T12:18:09.549Z,65.43
2019-02-07T12:20:57.611Z,61.23
2019-02-07T12:23:47.168Z,59.57
2019-02-07T12:26:38.467Z,56.53
2019-02-07T12:29:25.548Z,56.33
2019-02-07T12:32:10.340Z,62.03
2019-02-07T12:35:10.923Z,58.37
2019-02-07T12:37:55.262Z,60.07
2019-02-07T12:40:52.708Z,60.33
2019-02-07T12:43:28.974Z,57.83
2019-02-07T12:46:16.139Z,59.87
2019-02-07T12:49:05.162Z,58.73
2019-02-07T12:51:49.813Z,57.83
2019-02-07T12:54:40.970Z,55.47
2019-02-07T12:57:32.119Z,56.23
2019-02-07T13:00:16.705Z,55.77
2019-02-07T13:03:03.825Z,55.93
2019-02-07T13:06:07.485Z,49.70
2019-02-07T13:08:55.926Z,55.57
2019-02-07T13:11:44.182Z,49.67
2019-02-07T13:14:29.893Z,46.27
2019-02-07T13:17:07.242Z,48.43
2019-02-07T13:19:55.050Z,51.30
2019-02-07T13:22:39.517Z,44.40
2019-02-07T13:25:31.399Z,47.57
2019-02-07T13:28:18.317Z,49.43
2019-02-07T13:30:59.868Z,49.97
2019-02-07T13:33:41.001Z,44.90
2019-02-07T13:36:38.315Z,50.40
2019-02-07T13:39:21.944Z,52.33
2019-02-07T13:42:06.637Z,51.87
2019-02-07T13:44:48.061Z,54.83
2019-02-07T13:47:51.500Z,49.97
2019-02-07T13:50:40.278Z,55.27
2019-02-07T13:53:33.408Z,44.10
2019-02-07T13:56:20.210Z,48.77
2019-02-07T13:59:14.373Z,52.47
2019-02-07T14:02:05.193Z,53.67
2019-02-07T14:04:52.169Z,51.43
2019-02-07T14:07:43.520Z,52.50
2019-02-07T14:10:31.581Z,48.67
2019-02-07T14:13:32.030Z,52.37
2019-02-07T14:16:20.044Z,48.60
2019-02-07T14:19:07.227Z,51.70
2019-02-07T14:21:54.015Z,55.87
2019-02-07T14:24:43.562Z,53.97
2019-02-07T14:27:37.428Z,50.33
2019-02-07T14:30:26.170Z,50.08
2019-02-07T14:33:20.474Z,55.63
2019-02-07T14:36:20.947Z,54.27
2019-02-07T14:39:07.753Z,51.77
2019-02-07T14:41:58.298Z,61.60
2019-02-07T14:44:52.883Z,53.47
2019-02-07T14:47:22.253Z,56.60
2019-02-07T14:49:51.366Z,56.13
2019-02-07T14:52:20.409Z,56.30
2019-02-07T14:54:49.503Z,55.77
2019-02-07T14:57:18.525Z,60.73
2019-02-07T14:59:47.787Z,56.47
2019-02-07T15:02:17.188Z,54.77
2019-02-07T15:07:17.019Z,60.43
2019-02-07T15:09:46.178Z,58.77
2019-02-07T15:12:15.326Z,57.87
2019-02-07T15:14:45.853Z,64.67
2019-02-07T15:17:15.097Z,68.20
2019-02-07T15:19:44.171Z,56.40
2019-02-07T15:22:13.270Z,59.07
2019-02-07T15:24:42.389Z,60.57
2019-02-07T15:27:11.635Z,66.57
2019-02-07T15:29:40.761Z,70.17
2019-02-07T15:32:10.157Z,70.77
2019-02-07T15:34:39.324Z,68.97
2019-02-07T15:37:08.366Z,73.90
2019-02-07T15:39:37.573Z,78.07
2019-02-07T15:42:06.616Z,77.97
2019-02-07T15:44:35.646Z,71.73
2019-02-07T15:47:08.742Z,68.43
2019-02-07T15:49:36.920Z,61.17
2019-02-07T15:52:06.082Z,63.47
2019-02-07T15:54:35.209Z,70.23
2019-02-07T15:57:04.313Z,66.53
2019-02-07T15:59:44.474Z,67.10
2019-02-07T16:02:21.192Z,65.17
2019-02-07T16:04:50.243Z,71.30
2019-02-07T16:07:19.349Z,75.67
2019-02-07T16:09:48.649Z,70.53
2019-02-07T16:12:17.898Z,71.67
2019-02-07T16:14:46.986Z,71.70
2019-02-07T16:17:16.030Z,71.00
2019-02-07T16:19:45.074Z,76.60
2019-02-07T16:22:14.272Z,70.77
2019-02-07T16:24:43.333Z,73.10
2019-02-07T16:27:12.430Z,75.07
2019-02-07T16:29:41.912Z,80.37
2019-02-07T16:32:11.359Z,85.10
2019-02-07T16:34:40.503Z,74.10
2019-02-07T16:37:09.582Z,76.87
2019-02-07T16:39:38.728Z,71.97
2019-02-07T16:42:07.774Z,79.57
2019-02-07T16:44:37.681Z,76.47
2019-02-07T16:47:06.885Z,74.20
2019-02-07T16:49:35.998Z,81.20
2019-02-07T16:52:05.322Z,81.43
2019-02-07T16:54:34.393Z,84.77
2019-02-07T16:57:03.483Z,81.57
2019-02-07T16:59:32.803Z,74.50
2019-02-07T17:02:01.849Z,82.10
2019-02-07T17:04:30.860Z,79.33
2019-02-07T17:06:59.897Z,80.30
2019-02-07T17:09:36.149Z,91.00
2019-02-07T17:12:05.928Z,76.83
2019-02-07T17:14:36.076Z,78.33
2019-02-07T17:17:06.570Z,83.17
2019-02-07T17:19:35.697Z,74.50
2019-02-07T17:22:04.835Z,75.13
2019-02-07T17:24:33.895Z,83.57
2019-02-07T17:27:03.437Z,84.20
2019-02-07T17:29:32.906Z,84.53
2019-02-07T17:32:02.000Z,80.50
2019-02-07T17:34:30.998Z,73.27
2019-02-07T17:37:00.158Z,81.07
2019-02-07T17:39:29.222Z,83.17
2019-02-07T17:41:59.523Z,80.40
2019-02-07T17:44:28.817Z,74.00
2019-02-07T17:46:57.949Z,79.53
2019-02-07T17:49:27.153Z,82.37
2019-02-07T17:51:56.493Z,76.93
2019-02-07T17:54:28.471Z,88.93
2019-02-07T17:56:58.055Z,81.00
2019-02-07T17:59:27.371Z,79.67
2019-02-07T18:01:56.570Z,77.93
2019-02-07T18:04:26.755Z,87.13
2019-02-07T18:06:56.337Z,86.27
2019-02-07T18:09:25.447Z,80.70
2019-02-07T18:11:54.649Z,82.33
2019-02-07T18:14:23.749Z,84.70
2019-02-07T18:16:52.715Z,79.03
2019-02-07T18:19:21.844Z,80.43
2019-02-07T18:21:51.368Z,83.90
2019-02-07T18:24:20.793Z,80.53
2019-02-07T18:26:50.199Z,89.83
2019-02-07T18:29:19.470Z,90.00
2019-02-07T18:31:50.974Z,83.73
2019-02-07T18:34:20.146Z,89.33
2019-02-07T18:36:49.200Z,84.47
2019-02-07T18:39:18.449Z,98.13
2019-02-07T18:41:47.580Z,80.33
2019-02-07T18:44:16.855Z,98.00
2019-02-07T18:46:45.918Z,98.77
2019-02-07T18:49:17.774Z,92.00
2019-02-07T18:51:47.073Z,94.17
2019-02-07T18:54:16.137Z,93.63
2019-02-07T18:56:45.522Z,84.53
2019-02-07T18:59:14.561Z,85.93
2019-02-07T19:01:44.658Z,92.20
2019-02-07T19:04:13.727Z,77.33
2019-02-07T19:06:45.410Z,85.80
2019-02-07T19:09:14.445Z,87.30
2019-02-07T19:11:43.535Z,83.63
2019-02-07T19:14:15.416Z,92.83
2019-02-07T19:16:44.486Z,92.77
2019-02-07T19:19:13.549Z,87.87
2019-02-07T19:21:42.649Z,88.33
2019-02-07T19:24:11.524Z,80.57
2019-02-07T19:26:40.760Z,91.40
2019-02-07T19:29:10.213Z,92.13
2019-02-07T19:31:39.298Z,99.70
2019-02-07T19:34:08.386Z,87.23
2019-02-07T19:36:37.929Z,94.10
2019-02-07T19:39:09.630Z,91.87
2019-02-07T19:41:38.689Z,86.90
2019-02-07T19:44:08.094Z,85.27
2019-02-07T19:46:38.310Z,87.10
2019-02-07T19:49:07.337Z,91.00
2019-02-07T19:51:36.405Z,86.77
2019-02-07T19:54:06.517Z,93.63
2019-02-07T19:56:35.622Z,105.20
2019-02-07T19:59:05.246Z,92.03
2019-02-07T20:01:34.353Z,98.93
2019-02-07T20:04:03.555Z,97.23
2019-02-07T20:06:32.525Z,92.87
2019-02-07T20:09:01.480Z,106.03
2019-02-07T20:11:30.442Z,116.77
2019-02-07T20:13:59.631Z,103.17
2019-02-07T20:16:28.652Z,104.93
2019-02-07T20:18:57.729Z,96.17
2019-02-07T20:21:26.726Z,94.43
2019-02-07T20:23:55.813Z,97.80
2019-02-07T20:26:24.809Z,89.50
2019-02-07T20:28:54.814Z,93.33
2019-02-07T20:31:23.902Z,104.87
2019-02-07T20:33:53.077Z,91.87
2019-02-07T20:36:22.378Z,93.47
2019-02-07T20:38:51.505Z,103.17
2019-02-07T20:41:20.566Z,97.77
2019-02-07T20:43:49.938Z,102.17
2019-02-07T20:46:19.312Z,92.97
2019-02-07T20:48:48.838Z,94.53
2019-02-07T20:51:18.086Z,103.33
2019-02-07T20:53:47.170Z,101.17
2019-02-07T20:56:16.205Z,95.87
2019-02-07T20:58:45.108Z,97.93
2019-02-07T21:01:14.083Z,86.90
2019-02-07T21:03:43.356Z,95.70
2019-02-07T21:06:12.956Z,97.13
2019-02-07T21:08:46.281Z,99.40
2019-02-07T21:11:17.250Z,103.80
2019-02-07T21:13:46.395Z,94.60
2019-02-07T21:16:15.543Z,103.70
2019-02-07T21:18:44.709Z,105.53
2019-02-07T21:21:15.358Z,108.47
2019-02-07T21:23:44.495Z,98.03
2019-02-07T21:26:13.562Z,101.33
2019-02-07T21:28:42.754Z,101.17
2019-02-07T21:31:12.953Z,101.73
2019-02-07T21:33:42.012Z,111.87
2019-02-07T21:36:11.208Z,100.97
2019-02-07T21:38:40.320Z,103.77
2019-02-07T21:41:09.370Z,97.63
2019-02-07T21:43:38.486Z,104.77
2019-02-07T21:46:09.566Z,103.57
2019-02-07T21:48:38.554Z,108.60
2019-02-07T21:51:07.732Z,103.93
2019-02-07T21:53:38.137Z,109.77
2019-02-07T21:56:07.302Z,111.90
2019-02-07T21:58:36.438Z,91.77
2019-02-07T22:01:05.767Z,112.00
2019-02-07T22:03:34.926Z,95.40
2019-02-07T22:06:04.066Z,101.30
2019-02-07T22:08:35.136Z,109.23
2019-02-07T22:11:04.158Z,99.90
2019-02-07T22:13:33.215Z,112.43
2019-02-07T22:16:02.222Z,112.03
2019-02-07T22:18:31.321Z,109.63
2019-02-07T22:21:00.433Z,108.03
2019-02-07T22:23:29.569Z,108.17
2019-02-07T22:25:59.784Z,109.57
2019-02-07T22:28:30.793Z,117.57
2019-02-07T22:30:59.802Z,110.47
2019-02-07T22:33:28.768Z,123.93
2019-02-07T22:35:57.928Z,114.47
2019-02-07T22:38:27.085Z,118.00
2019-02-07T22:40:56.080Z,105.83
2019-02-07T22:43:25.231Z,110.77
2019-02-07T22:45:54.336Z,111.67
2019-02-07T22:48:23.358Z,126.30
2019-02-07T22:50:52.584Z,125.90
2019-02-07T22:53:21.630Z,129.00
2019-02-07T22:55:50.830Z,123.80
2019-02-07T22:58:19.813Z,126.33
2019-02-07T23:01:27.931Z,123.57
2019-02-07T23:04:02.121Z,126.70
2019-02-07T23:06:31.074Z,120.20
2019-02-07T23:09:00.130Z,109.20
2019-02-07T23:11:29.305Z,118.83
2019-02-07T23:13:58.393Z,126.60
2019-02-07T23:16:27.942Z,123.43
2019-02-07T23:18:57.024Z,123.30
2019-02-07T23:21:26.209Z,123.47
2019-02-07T23:23:55.326Z,129.70
2019-02-07T23:26:24.416Z,125.57
2019-02-07T23:28:53.499Z,128.53
2019-02-07T23:31:22.573Z,129.83
2019-02-07T23:33:51.685Z,113.17
2019-02-07T23:36:20.796Z,117.60
2019-02-07T23:38:49.851Z,95.33
2019-02-07T23:41:38.001Z,143.97
2019-02-07T23:44:08.134Z,112.47
2019-02-07T23:46:37.213Z,122.60
2019-02-07T23:49:06.833Z,120.07
2019-02-07T23:51:35.789Z,135.73
2019-02-07T23:54:05.217Z,133.80
2019-02-07T23:56:34.357Z,131.10
2019-02-07T23:59:03.509Z,144.90
